• Join FlightAware (Why Join?)
  • Login
  • US Flag 
10:05AM EST


 

Airport Tracker/Info


-or-


 

Live Flight TrackerFlight Track Log ✈ JTL905 ✈ 19-May-2013 ✈ KSPS - KLAS

Flight Track Log - Related Links

Times and Time Zones

All times are in EDT time to prevent confusion due to time zone crossing. See the JTL905 flight status page for this flight to view local times or setup timezone preferences in your user account.

Time Position Orientation Groundspeed Altitude Reporting Facility
EDT Latitude Longitude Course Direction KTS MPH feet Rate Location/Type
12:29PM 33.9536 -98.4978 292° West 267 307 2,000  Level Fort Worth Center
12:30PM 33.9242 -98.5375 228° Southwest 79 91 4,400 2,700 Climbing Fort Worth Center
12:31PM 33.9486 -98.6053 294° West 123 142 7,500 3,000 Climbing Fort Worth Center
12:32PM 33.9667 -98.6731 288° West 190 219 10,400 2,520 Climbing Fort Worth Center
12:33PM 33.9886 -98.7586 287° West 236 272 12,600 1,920 Climbing Fort Worth Center
12:34PM 34.1254 -99.1596 292° West  Level FlightAware Approximate
12:34PM 34.0106 -98.8442 287° West 262 302 14,300  Level Fort Worth Center
12:35PM 34.0347 -98.9397 287° West 288 331 16,200 1,980 Climbing Fort Worth Center
12:36PM 34.0606 -99.0381 288° West 305 351 18,300 1,980 Climbing Fort Worth Center
12:37PM 34.0822 -99.1286 286° West 305 351 20,200 1,980 Climbing Fort Worth Center
12:38PM 34.1081 -99.2244 288° West 305 351 22,300 2,040 Climbing Fort Worth Center
12:39PM 34.1317 -99.3203 287° West 305 351 24,300 1,800 Climbing Fort Worth Center
12:40PM 34.1572 -99.4189 287° West 297 342 26,000 1,560 Climbing Fort Worth Center
12:41PM 34.1825 -99.5225 286° West 302 348 27,500 1,500 Climbing Fort Worth Center
12:42PM 34.2081 -99.6286 286° West 314 361 29,000 1,500 Climbing Fort Worth Center
12:43PM 34.2333 -99.7294 287° West 320 368 30,600 1,800 Climbing Fort Worth Center
12:44PM 34.2583 -99.8308 287° West 325 374 32,700 1,800 Climbing Fort Worth Center
12:45PM 34.2817 -99.9269 286° West 307 353 34,300 1,380 Climbing Fort Worth Center
12:46PM 34.3047 -100.0231 286° West 302 348 35,500 1,200 Climbing Fort Worth Center
12:47PM 34.3297 -100.1194 287° West 302 348 36,700 1,200 Climbing Fort Worth Center
12:48PM 34.3567 -100.2258 287° West 302 348 38,000 1,080 Climbing Fort Worth Center
12:49PM 34.3753 -100.3247 283° West 302 348 38,900 780 Climbing Fort Worth Center
12:49PM 34.3789 -100.3989 273° West 298 343 39,500 540 Climbing Albuquerque Center
12:51PM 34.3822 -100.5039 272° West 306 352 40,000 240 Climbing Albuquerque Center
12:52PM 34.3894 -100.6108 275° West 314 361 40,000  Level Albuquerque Center
12:53PM 34.3967 -100.7481 274° West 333 383 40,000  Level Albuquerque Center
12:54PM 34.4031 -100.8678 274° West 349 402 40,000  Level Albuquerque Center
12:55PM 34.4097 -100.9867 274° West 354 407 40,000  Level Albuquerque Center
12:56PM 34.4156 -101.1047 273° West 353 406 40,000  Level Albuquerque Center
12:57PM 34.4217 -101.2225 274° West 351 404 40,000  Level Albuquerque Center
12:58PM 34.4283 -101.3631 273° West 348 400 40,000  Level Albuquerque Center
12:59PM 34.4356 -101.5025 274° West 348 400 40,000  Level Albuquerque Center
01:00PM 34.4406 -101.6189 273° West 345 397 40,000  Level Albuquerque Center
01:01PM 34.4469 -101.7361 274° West 347 399 40,000  Level Albuquerque Center
01:02PM 34.4522 -101.8525 273° West 347 399 40,000  Level Albuquerque Center
01:03PM 34.4575 -101.9678 273° West 343 395 40,000  Level Albuquerque Center
01:04PM 34.4631 -102.0833 273° West 343 395 40,000  Level Albuquerque Center
01:05PM 34.4692 -102.2233 273° West 346 398 40,000  Level Albuquerque Center
01:06PM 34.4744 -102.3378 273° West 341 392 40,000  Level Albuquerque Center
01:07PM 34.4783 -102.4506 272° West 336 387 40,000  Level Albuquerque Center
01:08PM 34.4839 -102.5642 273° West 338 389 40,000  Level Albuquerque Center
01:09PM 34.4883 -102.6789 273° West 338 389 40,000  Level Albuquerque Center
01:10PM 34.4931 -102.7942 273° West 339 390 40,000  Level Albuquerque Center
01:11PM 34.5072 -102.9272 277° West 338 389 40,000  Level Albuquerque Center
01:12PM 34.5261 -103.0422 281° West 343 395 40,000  Level Albuquerque Center
01:13PM 34.5444 -103.1578 281° West 345 397 40,000  Level Albuquerque Center
01:15PM 34.5614 -103.2744 280° West 347 399 40,000  Level Albuquerque Center
01:16PM 34.5783 -103.3892 280° West 344 396 40,000  Level Albuquerque Center
01:17PM 34.5967 -103.5044 281° West 344 396 40,000  Level Albuquerque Center
01:18PM 34.6128 -103.6200 280° West 344 396 40,000  Level Albuquerque Center
01:19PM 34.6306 -103.7356 281° West 344 396 40,000  Level Albuquerque Center
01:20PM 34.6503 -103.8714 280° West 346 398 40,000  Level Albuquerque Center
01:21PM 34.6664 -103.9856 280° West 342 394 40,000  Level Albuquerque Center
01:22PM 34.6831 -104.1017 280° West 343 395 40,000  Level Albuquerque Center
01:23PM 34.7000 -104.2172 280° West 343 395 40,000  Level Albuquerque Center
01:24PM 34.7167 -104.3336 280° West 344 396 40,000  Level Albuquerque Center
01:25PM 34.7331 -104.4483 280° West 341 392 40,000  Level Albuquerque Center
01:26PM 34.7494 -104.5622 280° West 339 390 40,000  Level Albuquerque Center
01:27PM 34.7650 -104.6767 279° West 339 390 40,000  Level Albuquerque Center
01:28PM 34.7808 -104.7906 280° West 338 389 40,000  Level Albuquerque Center
01:29PM 34.7983 -104.9231 279° West 337 388 40,000  Level Albuquerque Center
01:30PM 34.8147 -105.0369 280° West 337 388 40,000  Level Albuquerque Center
01:31PM 34.8303 -105.1511 279° West 338 389 40,000  Level Albuquerque Center
01:32PM 34.8458 -105.2650 279° West 338 389 40,000  Level Albuquerque Center
01:33PM 34.8622 -105.3808 280° West 342 394 40,000  Level Albuquerque Center
01:34PM 34.8778 -105.4967 279° West 343 395 40,000  Level Albuquerque Center
01:35PM 34.8936 -105.6147 279° West 348 400 40,000  Level Albuquerque Center
01:36PM 34.9106 -105.7542 278° West 352 405 40,000  Level Albuquerque Center
01:37PM 34.9258 -105.8728 279° West 352 405 40,000  Level Albuquerque Center
01:38PM 34.9419 -105.9933 279° West 352 405 40,000  Level Albuquerque Center
01:39PM 34.9564 -106.1081 279° West 346 398 40,000  Level Albuquerque Center
01:40PM 34.9700 -106.2219 278° West 342 394 40,000  Level Albuquerque Center
01:41PM 34.9842 -106.3369 279° West 343 395 40,000  Level Albuquerque Center
01:42PM 34.9992 -106.4531 279° West 345 397 40,000  Level Albuquerque Center
01:43PM 35.0144 -106.5847 278° West 349 402 40,000  Level Albuquerque Center
01:45PM 35.0283 -106.6958 279° West 348 400 40,000  Level Albuquerque Center
01:46PM 35.0439 -106.8244 278° West 345 397 40,000  Level Albuquerque Center
01:47PM 35.0697 -106.9322 286° West 345 397 40,000  Level Albuquerque Center
01:48PM 35.0972 -107.0589 285° West 345 397 40,000  Level Albuquerque Center
01:49PM 35.1214 -107.1675 285° West 345 397 40,000  Level Albuquerque Center
01:50PM 35.1469 -107.2939 284° West 355 409 40,000  Level Albuquerque Center
01:51PM 35.1725 -107.4094 285° West 353 406 40,000  Level Albuquerque Center
01:52PM 35.1994 -107.5394 284° West 352 405 40,000  Level Albuquerque Center
01:53PM 35.2239 -107.6517 285° West 355 409 40,000  Level Albuquerque Center
01:54PM 35.2511 -107.7822 284° West 354 407 40,000  Level Albuquerque Center
01:55PM 35.2753 -107.8939 285° West 355 409 40,000  Level Albuquerque Center
01:56PM 35.3003 -108.0067 285° West 356 410 40,000  Level Albuquerque Center
01:57PM 35.3258 -108.1408 283° West 360 414 40,000  Level Albuquerque Center
01:58PM 35.3508 -108.2539 285° West 360 414 40,000  Level Albuquerque Center
01:59PM 35.3767 -108.3853 284° West 356 410 40,000  Level Albuquerque Center
02:00PM 35.4003 -108.4981 284° West 355 409 40,000  Level Albuquerque Center
02:01PM 35.4267 -108.6278 284° West 353 406 40,000  Level Albuquerque Center
02:02PM 35.4494 -108.7392 284° West 352 405 40,000  Level Albuquerque Center
02:03PM 35.4750 -108.8686 284° West 349 402 40,000  Level Albuquerque Center
02:04PM 35.4817 -108.9833 274° West 351 404 40,000  Level Albuquerque Center
02:05PM 35.4869 -109.0969 273° West 349 402 40,000  Level Albuquerque Center
02:06PM 35.4939 -109.2303 274° West 350 403 40,000  Level Albuquerque Center
02:07PM 35.4997 -109.3469 274° West 354 407 40,000  Level Albuquerque Center
02:08PM 35.5061 -109.4822 273° West 355 409 40,000  Level Albuquerque Center
02:09PM 35.5106 -109.5969 273° West 352 405 40,000  Level Albuquerque Center
02:10PM 35.5164 -109.7308 273° West 355 409 40,000  Level Albuquerque Center
02:11PM 35.5211 -109.8472 273° West 355 409 40,000  Level Albuquerque Center
02:12PM 35.5261 -109.9853 273° West 359 413 40,000  Level Albuquerque Center
02:13PM 35.5294 -110.1033 272° West 362 417 40,000  Level Albuquerque Center
02:14PM 35.5169 -110.2222 263° West 377 434 40,000  Level Albuquerque Center
02:16PM 35.4606 -110.3500 242° Southwest 382 440 40,000 -540 Level Albuquerque Center
02:17PM 35.4075 -110.4550 238° Southwest 379 436 38,900 -1,080 Descending Albuquerque Center
02:18PM 35.3447 -110.5767 238° Southwest 376 433 37,800 -1,200 Descending Albuquerque Center
02:19PM 35.2928 -110.6683 235° Southwest 350 403 36,500 -1,440 Descending Albuquerque Center
02:20PM 35.2669 -110.7906 256° West 345 397 34,900 -1,500 Descending Albuquerque Center
02:21PM 35.2803 -110.8992 279° West 341 392 33,500 -1,500 Descending Albuquerque Center
02:22PM 35.2983 -111.0283 280° West 343 395 31,800 -1,500 Descending Albuquerque Center
02:23PM 35.3158 -111.1464 280° West 353 406 30,400 -900 Descending Albuquerque Center
02:24PM 35.3300 -111.2631 278° West 326 375 30,000 -240 Descending Albuquerque Center
02:25PM 35.3456 -111.3683 280° West 325 374 30,000  Level Albuquerque Center
02:26PM 35.3619 -111.4911 279° West 335 386 30,000  Level Albuquerque Center
02:27PM 35.3778 -111.6011 280° West 333 383 30,000  Level Albuquerque Center
02:28PM 35.3928 -111.7103 280° West 328 377 30,000  Level Albuquerque Center
02:29PM 35.4067 -111.8208 279° West 330 380 30,000  Level Albuquerque Center
02:30PM 35.4214 -111.9300 279° West 329 379 30,000  Level Albuquerque Center
02:31PM 35.4361 -112.0400 279° West 328 377 30,000  Level Albuquerque Center
02:32PM 35.4506 -112.1503 279° West 330 380 30,000  Level Los Angeles Center
02:33PM 35.4672 -112.2828 279° West 330 380 30,000  Level Albuquerque Center
02:34PM 35.4817 -112.3939 279° West 332 382 30,000  Level Albuquerque Center
02:35PM 35.4969 -112.5061 280° West 334 384 30,000  Level Los Angeles Center
02:36PM 35.5100 -112.6167 278° West 332 382 30,000 -120 Level Los Angeles Center
02:37PM 35.4756 -112.7406 251° West 349 402 29,800 -600 Descending Los Angeles Center
02:38PM 35.4325 -112.8489 244° Southwest 352 405 28,800 -900 Descending Los Angeles Center
02:39PM 35.3881 -112.9542 243° Southwest 351 404 28,000 -420 Descending Los Angeles Center
02:40PM 35.3433 -113.0603 243° Southwest 350 403 28,000  Level Los Angeles Center
02:41PM 35.3047 -113.1664 246° West 348 400 28,000  Level Los Angeles Center
02:42PM 35.2539 -113.2903 243° Southwest 351 404 28,000  Level Los Angeles Center
02:43PM 35.2111 -113.3972 244° Southwest 352 405 28,000  Level Los Angeles Center
02:44PM 35.1689 -113.5025 244° Southwest 349 402 28,000  Level Los Angeles Center
02:45PM 35.1275 -113.6064 244° Southwest 342 394 28,000  Level Los Angeles Center
02:46PM 35.0847 -113.7100 243° Southwest 343 395 28,000 -360 Level Los Angeles Center
02:47PM 35.0819 -113.8139 268° West 328 377 27,300 -1,320 Descending Los Angeles Center
02:48PM 35.1597 -113.8992 318° Northwest 316 364 25,300 -1,860 Descending Los Angeles Center
02:49PM 35.2350 -113.9617 326° Northwest 307 353 23,500 -1,680 Descending Los Angeles Center
02:51PM 35.3025 -114.0175 326° Northwest 295 339 21,900 -1,560 Descending Los Angeles Center
02:52PM 35.3683 -114.0736 325° Northwest 289 333 20,300 -1,500 Descending Los Angeles Center
02:53PM 35.4331 -114.1267 326° Northwest 282 325 18,800 -1,560 Descending Los Angeles Center
02:54PM 35.5069 -114.1864 327° Northwest 284 327 17,100 -1,560 Descending Los Angeles Center
02:55PM 35.5686 -114.2383 326° Northwest 273 314 15,600 -1,560 Descending Los Angeles Center
02:55PM 35.5983 -114.2631 326° Northwest 266 306 14,900 -1,680 Descending Los Angeles Center
02:56PM 35.6222 -114.2817 328° Northwest 262 302 14,200 -1,560 Descending Los Angeles Center
02:57PM 35.6833 -114.3325 326° Northwest 265 305 12,700 -1,140 Descending Los Angeles Center
02:57PM 35.7422 -114.3814 326° Northwest 278 320 12,000 -600 Descending Los Angeles Center
02:58PM 35.7553 -114.4039 306° West 276 318 12,000  Level Los Angeles Center
02:59PM 35.7714 -114.4831 284° West 280 322 12,000  Level Los Angeles Center
02:59PM 35.7722 -114.4975 274° West 279 321 12,000 -240 Level Los Angeles Center
03:00PM 35.7767 -114.5742 274° West 273 314 11,800 -420 Descending Los Angeles Center
03:00PM 35.7722 -114.5897 251° West 269 310 11,600 -1,200 Descending Los Angeles Center
03:00PM 35.7650 -114.6578 263° West 269 310 10,700 -1,200 Descending Los Angeles Center
03:01PM 35.7594 -114.6800 253° West 267 307 10,400 -720 Descending Los Angeles Center
03:02PM 35.7508 -114.7500 261° West 273 314 10,000 -420 Descending Los Angeles Center
03:02PM 35.7439 -114.7928 259° West 275 316 10,000  Level Los Angeles Center
03:03PM 35.7358 -114.8481 260° West 276 318 10,000  Level Los Angeles Center
03:03PM 35.7278 -114.8850 255° West 276 318 10,000  Level Los Angeles Center
03:04PM 35.7150 -114.9775 260° West 274 315 10,000  Level Los Angeles Center
03:05PM 35.7083 -115.0372 262° West 278 320 10,000  Level Los Angeles Center
03:05PM 35.7028 -115.0703 258° West 275 316 10,000  Level Los Angeles Center
03:06PM 35.6933 -115.1164 256° West 231 266 10,000  Level Los Angeles Center
03:06PM 35.6797 -115.1411 236° Southwest 250 288 10,000  Level Los Angeles Center
03:07PM 35.6747 -115.1992 264° West 231 266 10,000  Level Los Angeles Center
03:07PM 35.6772 -115.2169 280° West 240 276 10,000 -540 Level Los Angeles Center
03:08PM 35.6878 -115.2797 282° West 233 268 9,500 -720 Descending Los Angeles Center
03:08PM 35.6894 -115.2958 277° West 237 273 9,300 -1,200 Descending Los Angeles Center
03:09PM 35.7253 -115.3231 328° Northwest 238 274 8,400 -1,260 Descending Los Angeles Center
03:09PM 35.7572 -115.3275 354° North 235 270 8,000 -300 Descending Los Angeles Center
03:10PM 35.7897 -115.3311 355° North 226 260 8,100  Climbing Los Angeles Center
03:10PM 35.8169 -115.3169 23° Northeast 234 269 8,000 -240 Descending Los Angeles Center
03:11PM 35.8419 -115.3033 24° Northeast 224 258 7,900 -720 Descending Los Angeles Center
03:11PM 35.8706 -115.2850 27° Northeast 225 259 7,300 -1,140 Descending Los Angeles Center
03:12PM 35.8922 -115.2764 18° North 203 234 6,800 -900 Descending Los Angeles Center
03:12PM 35.9186 -115.2583 29° Northeast 204 235 6,400 -900 Descending Los Angeles Center
03:13PM 35.9381 -115.2481 23° Northeast 193 222 5,900 -1,020 Descending Los Angeles Center
03:13PM 35.9678 -115.2314 24° Northeast 194 223 5,400 -1,440 Descending Los Angeles Center
03:14PM 35.9936 -115.2167 25° Northeast 192 221 4,300 -1,620 Descending Los Angeles Center
03:15PM 36.0400 -115.1908 24° Northeast 181 208 3,100 -720 Descending Los Angeles Center
03:16PM 36.1078 -115.1383 32° Northeast 252 290 2,700 -360 Descending Los Angeles Center